sensor_id;sensor_type;location;lat;lon;timestamp;P1;durP1;ratioP1;P2;durP2;ratioP2
76786;SDS011;65739;51.482;5.702;2024-01-10T00:08:17;7.32;;;2.90;;
76786;SDS011;65739;51.482;5.702;2024-01-10T00:13:59;5.60;;;2.92;;
76786;SDS011;65739;51.482;5.702;2024-01-10T00:23:15;7.15;;;2.95;;
76786;SDS011;65739;51.482;5.702;2024-01-10T00:59:48;7.40;;;2.60;;
76786;SDS011;65739;51.482;5.702;2024-01-10T01:03:00;4.53;;;2.60;;
76786;SDS011;65739;51.482;5.702;2024-01-10T01:06:06;5.20;;;2.60;;
76786;SDS011;65739;51.482;5.702;2024-01-10T01:12:52;5.45;;;2.50;;
76786;SDS011;65739;51.482;5.702;2024-01-10T01:29:31;5.75;;;3.00;;
76786;SDS011;65739;51.482;5.702;2024-01-10T01:36:06;5.75;;;2.63;;
76786;SDS011;65739;51.482;5.702;2024-01-10T01:39:11;5.13;;;2.70;;
76786;SDS011;65739;51.482;5.702;2024-01-10T01:41:57;10.13;;;3.53;;
76786;SDS011;65739;51.482;5.702;2024-01-10T01:44:28;4.35;;;2.63;;
76786;SDS011;65739;51.482;5.702;2024-01-10T01:47:10;5.45;;;2.50;;
76786;SDS011;65739;51.482;5.702;2024-01-10T01:49:46;8.00;;;3.15;;
76786;SDS011;65739;51.482;5.702;2024-01-10T01:52:21;6.70;;;2.70;;
76786;SDS011;65739;51.482;5.702;2024-01-10T01:54:56;7.18;;;2.95;;
76786;SDS011;65739;51.482;5.702;2024-01-10T01:57:49;6.93;;;2.72;;
76786;SDS011;65739;51.482;5.702;2024-01-10T02:00:15;7.22;;;3.00;;
76786;SDS011;65739;51.482;5.702;2024-01-10T02:02:43;4.75;;;2.65;;
76786;SDS011;65739;51.482;5.702;2024-01-10T02:05:13;4.88;;;2.40;;
76786;SDS011;65739;51.482;5.702;2024-01-10T02:07:40;4.10;;;2.72;;
76786;SDS011;65739;51.482;5.702;2024-01-10T02:10:08;7.57;;;2.75;;
76786;SDS011;65739;51.482;5.702;2024-01-10T02:12:50;5.22;;;2.85;;
76786;SDS011;65739;51.482;5.702;2024-01-10T02:15:29;5.20;;;2.75;;
76786;SDS011;65739;51.482;5.702;2024-01-10T02:17:57;8.88;;;3.55;;
76786;SDS011;65739;51.482;5.702;2024-01-10T02:27:31;6.55;;;3.13;;
76786;SDS011;65739;51.482;5.702;2024-01-10T02:40:31;7.88;;;2.60;;
76786;SDS011;65739;51.482;5.702;2024-01-10T02:43:30;5.47;;;2.92;;
76786;SDS011;65739;51.482;5.702;2024-01-10T02:46:43;4.63;;;2.88;;
76786;SDS011;65739;51.482;5.702;2024-01-10T02:49:29;6.43;;;2.90;;
76786;SDS011;65739;51.482;5.702;2024-01-10T02:51:57;7.60;;;3.17;;
76786;SDS011;65739;51.482;5.702;2024-01-10T02:54:23;4.47;;;2.80;;
76786;SDS011;65739;51.482;5.702;2024-01-10T02:56:51;5.28;;;2.58;;
76786;SDS011;65739;51.482;5.702;2024-01-10T02:59:17;7.68;;;2.80;;
76786;SDS011;65739;51.482;5.702;2024-01-10T03:01:43;7.07;;;2.85;;
76786;SDS011;65739;51.482;5.702;2024-01-10T03:04:08;6.30;;;2.85;;
76786;SDS011;65739;51.482;5.702;2024-01-10T03:06:36;5.95;;;2.80;;
76786;SDS011;65739;51.482;5.702;2024-01-10T03:09:02;8.75;;;3.17;;
76786;SDS011;65739;51.482;5.702;2024-01-10T03:11:28;6.75;;;3.03;;
76786;SDS011;65739;51.482;5.702;2024-01-10T03:14:01;6.55;;;2.80;;
76786;SDS011;65739;51.482;5.702;2024-01-10T03:16:32;3.92;;;2.47;;
76786;SDS011;65739;51.482;5.702;2024-01-10T03:18:58;4.03;;;3.03;;
76786;SDS011;65739;51.482;5.702;2024-01-10T03:21:24;6.80;;;3.30;;
76786;SDS011;65739;51.482;5.702;2024-01-10T03:23:54;5.15;;;3.10;;
76786;SDS011;65739;51.482;5.702;2024-01-10T03:26:21;7.13;;;2.83;;
76786;SDS011;65739;51.482;5.702;2024-01-10T03:28:47;3.03;;;2.13;;
76786;SDS011;65739;51.482;5.702;2024-01-10T03:31:13;6.25;;;3.22;;
76786;SDS011;65739;51.482;5.702;2024-01-10T03:33:39;5.68;;;2.85;;
76786;SDS011;65739;51.482;5.702;2024-01-10T03:36:05;6.43;;;2.90;;
76786;SDS011;65739;51.482;5.702;2024-01-10T03:38:31;4.78;;;2.72;;
76786;SDS011;65739;51.482;5.702;2024-01-10T03:40:57;4.70;;;3.03;;
76786;SDS011;65739;51.482;5.702;2024-01-10T03:43:24;8.90;;;3.47;;
76786;SDS011;65739;51.482;5.702;2024-01-10T03:45:50;6.68;;;3.28;;
76786;SDS011;65739;51.482;5.702;2024-01-10T03:48:16;9.10;;;3.20;;
76786;SDS011;65739;51.482;5.702;2024-01-10T03:50:44;6.75;;;2.85;;
76786;SDS011;65739;51.482;5.702;2024-01-10T03:53:09;9.32;;;3.25;;
76786;SDS011;65739;51.482;5.702;2024-01-10T03:55:35;5.13;;;3.13;;
76786;SDS011;65739;51.482;5.702;2024-01-10T03:58:04;7.25;;;3.17;;
76786;SDS011;65739;51.482;5.702;2024-01-10T04:00:30;5.68;;;2.70;;
76786;SDS011;65739;51.482;5.702;2024-01-10T04:02:55;5.72;;;2.78;;
76786;SDS011;65739;51.482;5.702;2024-01-10T04:05:21;6.80;;;3.33;;
76786;SDS011;65739;51.482;5.702;2024-01-10T04:07:49;4.15;;;2.88;;
76786;SDS011;65739;51.482;5.702;2024-01-10T04:10:17;7.32;;;3.03;;
76786;SDS011;65739;51.482;5.702;2024-01-10T04:13:06;5.82;;;3.10;;
76786;SDS011;65739;51.482;5.702;2024-01-10T04:15:39;4.60;;;2.53;;
76786;SDS011;65739;51.482;5.702;2024-01-10T04:18:14;8.43;;;3.35;;
76786;SDS011;65739;51.482;5.702;2024-01-10T04:20:40;6.72;;;3.10;;
76786;SDS011;65739;51.482;5.702;2024-01-10T04:23:07;6.15;;;3.30;;
76786;SDS011;65739;51.482;5.702;2024-01-10T04:25:34;5.35;;;2.85;;
76786;SDS011;65739;51.482;5.702;2024-01-10T04:28:00;5.53;;;2.88;;
76786;SDS011;65739;51.482;5.702;2024-01-10T04:30:26;9.35;;;3.38;;
76786;SDS011;65739;51.482;5.702;2024-01-10T04:32:52;6.40;;;3.08;;
76786;SDS011;65739;51.482;5.702;2024-01-10T04:35:18;6.72;;;2.97;;
76786;SDS011;65739;51.482;5.702;2024-01-10T04:37:43;6.32;;;3.00;;
76786;SDS011;65739;51.482;5.702;2024-01-10T04:45:29;7.38;;;2.55;;
76786;SDS011;65739;51.482;5.702;2024-01-10T04:47:55;5.57;;;3.17;;
76786;SDS011;65739;51.482;5.702;2024-01-10T04:50:20;6.55;;;2.97;;
76786;SDS011;65739;51.482;5.702;2024-01-10T04:52:46;6.38;;;3.25;;
76786;SDS011;65739;51.482;5.702;2024-01-10T04:55:12;6.22;;;3.28;;
76786;SDS011;65739;51.482;5.702;2024-01-10T04:57:37;8.55;;;3.17;;
76786;SDS011;65739;51.482;5.702;2024-01-10T05:00:03;6.95;;;2.70;;
76786;SDS011;65739;51.482;5.702;2024-01-10T05:02:29;5.65;;;3.08;;
76786;SDS011;65739;51.482;5.702;2024-01-10T05:04:55;6.53;;;2.95;;
76786;SDS011;65739;51.482;5.702;2024-01-10T05:07:20;9.25;;;3.35;;
76786;SDS011;65739;51.482;5.702;2024-01-10T05:09:46;5.60;;;3.15;;
76786;SDS011;65739;51.482;5.702;2024-01-10T05:12:12;8.60;;;3.35;;
76786;SDS011;65739;51.482;5.702;2024-01-10T05:14:37;4.70;;;2.72;;
76786;SDS011;65739;51.482;5.702;2024-01-10T05:17:03;6.35;;;3.13;;
76786;SDS011;65739;51.482;5.702;2024-01-10T05:19:29;4.68;;;2.85;;
76786;SDS011;65739;51.482;5.702;2024-01-10T05:21:54;7.30;;;3.10;;
76786;SDS011;65739;51.482;5.702;2024-01-10T05:24:20;7.55;;;3.20;;
76786;SDS011;65739;51.482;5.702;2024-01-10T05:26:45;6.93;;;3.25;;
76786;SDS011;65739;51.482;5.702;2024-01-10T05:29:11;7.60;;;3.08;;
76786;SDS011;65739;51.482;5.702;2024-01-10T05:31:37;6.28;;;3.50;;
76786;SDS011;65739;51.482;5.702;2024-01-10T05:34:02;6.05;;;3.17;;
76786;SDS011;65739;51.482;5.702;2024-01-10T05:36:30;7.72;;;2.88;;
76786;SDS011;65739;51.482;5.702;2024-01-10T05:38:55;10.95;;;3.53;;
76786;SDS011;65739;51.482;5.702;2024-01-10T05:41:21;5.10;;;3.00;;
76786;SDS011;65739;51.482;5.702;2024-01-10T05:43:46;6.05;;;2.97;;
76786;SDS011;65739;51.482;5.702;2024-01-10T05:46:12;8.02;;;3.40;;
76786;SDS011;65739;51.482;5.702;2024-01-10T05:48:45;6.88;;;3.47;;
76786;SDS011;65739;51.482;5.702;2024-01-10T05:51:11;6.70;;;3.30;;
76786;SDS011;65739;51.482;5.702;2024-01-10T05:53:37;5.43;;;2.88;;
76786;SDS011;65739;51.482;5.702;2024-01-10T05:56:05;5.55;;;3.28;;
76786;SDS011;65739;51.482;5.702;2024-01-10T05:58:33;7.63;;;3.30;;
76786;SDS011;65739;51.482;5.702;2024-01-10T06:01:01;9.73;;;3.70;;
76786;SDS011;65739;51.482;5.702;2024-01-10T06:03:27;9.20;;;3.47;;
76786;SDS011;65739;51.482;5.702;2024-01-10T06:05:52;6.93;;;3.28;;
76786;SDS011;65739;51.482;5.702;2024-01-10T06:08:18;8.63;;;3.15;;
76786;SDS011;65739;51.482;5.702;2024-01-10T06:10:44;6.90;;;3.20;;
76786;SDS011;65739;51.482;5.702;2024-01-10T06:13:09;6.43;;;3.45;;
76786;SDS011;65739;51.482;5.702;2024-01-10T06:15:35;6.25;;;2.70;;
76786;SDS011;65739;51.482;5.702;2024-01-10T06:18:00;6.28;;;3.13;;
76786;SDS011;65739;51.482;5.702;2024-01-10T06:20:26;5.47;;;3.30;;
76786;SDS011;65739;51.482;5.702;2024-01-10T06:22:51;9.55;;;3.13;;
76786;SDS011;65739;51.482;5.702;2024-01-10T06:25:17;6.53;;;3.35;;
76786;SDS011;65739;51.482;5.702;2024-01-10T06:27:43;4.82;;;3.00;;
76786;SDS011;65739;51.482;5.702;2024-01-10T06:30:08;5.50;;;3.60;;
76786;SDS011;65739;51.482;5.702;2024-01-10T06:32:34;6.93;;;3.28;;
76786;SDS011;65739;51.482;5.702;2024-01-10T06:35:00;6.10;;;2.83;;
76786;SDS011;65739;51.482;5.702;2024-01-10T06:37:28;10.02;;;3.15;;
76786;SDS011;65739;51.482;5.702;2024-01-10T06:39:53;7.32;;;3.45;;
76786;SDS011;65739;51.482;5.702;2024-01-10T06:42:19;6.32;;;2.97;;
76786;SDS011;65739;51.482;5.702;2024-01-10T06:44:45;6.90;;;3.38;;
76786;SDS011;65739;51.482;5.702;2024-01-10T06:47:11;7.95;;;3.38;;
76786;SDS011;65739;51.482;5.702;2024-01-10T06:49:36;5.50;;;2.88;;
76786;SDS011;65739;51.482;5.702;2024-01-10T06:52:03;8.30;;;3.45;;
76786;SDS011;65739;51.482;5.702;2024-01-10T06:54:32;6.18;;;3.35;;
76786;SDS011;65739;51.482;5.702;2024-01-10T06:56:57;11.55;;;3.53;;
76786;SDS011;65739;51.482;5.702;2024-01-10T06:59:23;7.10;;;3.45;;
76786;SDS011;65739;51.482;5.702;2024-01-10T07:01:52;6.35;;;2.90;;
76786;SDS011;65739;51.482;5.702;2024-01-10T07:04:18;8.20;;;3.30;;
76786;SDS011;65739;51.482;5.702;2024-01-10T07:06:47;6.97;;;3.28;;
76786;SDS011;65739;51.482;5.702;2024-01-10T07:09:12;8.43;;;3.88;;
76786;SDS011;65739;51.482;5.702;2024-01-10T07:11:44;8.07;;;3.55;;
76786;SDS011;65739;51.482;5.702;2024-01-10T07:14:13;6.13;;;3.40;;
76786;SDS011;65739;51.482;5.702;2024-01-10T07:16:40;8.48;;;3.80;;
76786;SDS011;65739;51.482;5.702;2024-01-10T07:19:08;5.68;;;3.38;;
76786;SDS011;65739;51.482;5.702;2024-01-10T07:21:38;8.30;;;3.63;;
76786;SDS011;65739;51.482;5.702;2024-01-10T07:24:06;5.93;;;3.47;;
76786;SDS011;65739;51.482;5.702;2024-01-10T07:26:35;8.48;;;3.75;;
76786;SDS011;65739;51.482;5.702;2024-01-10T07:29:01;8.77;;;4.25;;
76786;SDS011;65739;51.482;5.702;2024-01-10T07:31:27;10.00;;;4.20;;
76786;SDS011;65739;51.482;5.702;2024-01-10T07:33:54;7.80;;;3.97;;
76786;SDS011;65739;51.482;5.702;2024-01-10T08:03:28;8.77;;;3.90;;
76786;SDS011;65739;51.482;5.702;2024-01-10T08:05:59;8.95;;;4.20;;
76786;SDS011;65739;51.482;5.702;2024-01-10T08:18:46;8.77;;;4.18;;
76786;SDS011;65739;51.482;5.702;2024-01-10T08:32:28;10.70;;;4.05;;
76786;SDS011;65739;51.482;5.702;2024-01-10T08:34:54;9.45;;;4.22;;
76786;SDS011;65739;51.482;5.702;2024-01-10T08:37:20;10.55;;;4.60;;
76786;SDS011;65739;51.482;5.702;2024-01-10T08:39:46;9.63;;;4.80;;
76786;SDS011;65739;51.482;5.702;2024-01-10T08:42:12;9.77;;;4.10;;
76786;SDS011;65739;51.482;5.702;2024-01-10T08:44:38;7.68;;;3.95;;
76786;SDS011;65739;51.482;5.702;2024-01-10T08:47:04;10.88;;;4.22;;
76786;SDS011;65739;51.482;5.702;2024-01-10T08:49:29;9.00;;;4.38;;
76786;SDS011;65739;51.482;5.702;2024-01-10T08:51:55;12.13;;;4.50;;
76786;SDS011;65739;51.482;5.702;2024-01-10T08:54:21;10.07;;;4.22;;
76786;SDS011;65739;51.482;5.702;2024-01-10T08:56:47;13.77;;;4.97;;
76786;SDS011;65739;51.482;5.702;2024-01-10T08:59:13;13.63;;;5.15;;
76786;SDS011;65739;51.482;5.702;2024-01-10T09:01:39;9.20;;;4.70;;
76786;SDS011;65739;51.482;5.702;2024-01-10T09:04:05;10.73;;;5.18;;
76786;SDS011;65739;51.482;5.702;2024-01-10T09:06:31;12.50;;;5.05;;
76786;SDS011;65739;51.482;5.702;2024-01-10T09:08:57;18.35;;;5.95;;
76786;SDS011;65739;51.482;5.702;2024-01-10T09:11:23;13.50;;;5.38;;
76786;SDS011;65739;51.482;5.702;2024-01-10T09:13:49;14.77;;;5.53;;
76786;SDS011;65739;51.482;5.702;2024-01-10T09:16:18;13.07;;;5.15;;
76786;SDS011;65739;51.482;5.702;2024-01-10T09:18:44;11.68;;;5.28;;
76786;SDS011;65739;51.482;5.702;2024-01-10T09:21:09;10.23;;;4.75;;
76786;SDS011;65739;51.482;5.702;2024-01-10T09:23:35;9.90;;;5.25;;
76786;SDS011;65739;51.482;5.702;2024-01-10T09:26:02;13.13;;;5.60;;
76786;SDS011;65739;51.482;5.702;2024-01-10T09:28:27;13.57;;;5.55;;
76786;SDS011;65739;51.482;5.702;2024-01-10T09:30:53;14.02;;;5.97;;
76786;SDS011;65739;51.482;5.702;2024-01-10T09:33:19;13.18;;;5.32;;
76786;SDS011;65739;51.482;5.702;2024-01-10T09:36:01;15.10;;;5.63;;
76786;SDS011;65739;51.482;5.702;2024-01-10T09:38:30;10.40;;;5.45;;
76786;SDS011;65739;51.482;5.702;2024-01-10T09:41:05;12.07;;;5.50;;
76786;SDS011;65739;51.482;5.702;2024-01-10T09:43:31;18.90;;;5.78;;
76786;SDS011;65739;51.482;5.702;2024-01-10T09:46:06;13.27;;;5.60;;
76786;SDS011;65739;51.482;5.702;2024-01-10T09:48:33;14.02;;;6.35;;
76786;SDS011;65739;51.482;5.702;2024-01-10T09:51:06;13.80;;;5.55;;
76786;SDS011;65739;51.482;5.702;2024-01-10T09:53:34;12.10;;;5.90;;
76786;SDS011;65739;51.482;5.702;2024-01-10T09:56:05;10.13;;;5.53;;
76786;SDS011;65739;51.482;5.702;2024-01-10T09:58:31;12.05;;;5.75;;
76786;SDS011;65739;51.482;5.702;2024-01-10T10:01:04;10.25;;;5.45;;
76786;SDS011;65739;51.482;5.702;2024-01-10T10:03:32;14.38;;;6.13;;
76786;SDS011;65739;51.482;5.702;2024-01-10T10:06:07;11.90;;;6.07;;
76786;SDS011;65739;51.482;5.702;2024-01-10T10:08:33;13.05;;;5.53;;
76786;SDS011;65739;51.482;5.702;2024-01-10T10:11:12;14.85;;;5.57;;
76786;SDS011;65739;51.482;5.702;2024-01-10T10:13:40;15.90;;;6.38;;
76786;SDS011;65739;51.482;5.702;2024-01-10T10:16:13;15.32;;;6.95;;
76786;SDS011;65739;51.482;5.702;2024-01-10T10:18:51;15.32;;;6.18;;
76786;SDS011;65739;51.482;5.702;2024-01-10T10:21:22;13.55;;;6.30;;
76786;SDS011;65739;51.482;5.702;2024-01-10T10:24:00;16.02;;;6.60;;
76786;SDS011;65739;51.482;5.702;2024-01-10T10:26:28;15.85;;;6.75;;
76786;SDS011;65739;51.482;5.702;2024-01-10T10:28:56;15.20;;;6.53;;
76786;SDS011;65739;51.482;5.702;2024-01-10T10:31:28;17.00;;;6.38;;
76786;SDS011;65739;51.482;5.702;2024-01-10T10:33:56;15.15;;;6.57;;
76786;SDS011;65739;51.482;5.702;2024-01-10T10:36:26;14.50;;;6.75;;
76786;SDS011;65739;51.482;5.702;2024-01-10T10:39:17;14.55;;;6.85;;
76786;SDS011;65739;51.482;5.702;2024-01-10T10:41:43;16.92;;;6.07;;
76786;SDS011;65739;51.482;5.702;2024-01-10T10:44:24;17.15;;;7.15;;
76786;SDS011;65739;51.482;5.702;2024-01-10T10:46:52;16.95;;;6.63;;
76786;SDS011;65739;51.482;5.702;2024-01-10T10:49:23;16.73;;;6.43;;
76786;SDS011;65739;51.482;5.702;2024-01-10T10:52:03;18.25;;;6.22;;
76786;SDS011;65739;51.482;5.702;2024-01-10T10:54:34;14.27;;;6.53;;
76786;SDS011;65739;51.482;5.702;2024-01-10T10:57:06;14.90;;;6.50;;
76786;SDS011;65739;51.482;5.702;2024-01-10T10:59:38;19.33;;;6.95;;
76786;SDS011;65739;51.482;5.702;2024-01-10T11:02:13;14.48;;;6.85;;
76786;SDS011;65739;51.482;5.702;2024-01-10T16:38:54;19.20;;;7.68;;
76786;SDS011;65739;51.482;5.702;2024-01-10T16:41:43;16.48;;;7.65;;
76786;SDS011;65739;51.482;5.702;2024-01-10T16:44:19;20.27;;;7.85;;
76786;SDS011;65739;51.482;5.702;2024-01-10T16:47:08;24.75;;;8.45;;
76786;SDS011;65739;51.482;5.702;2024-01-10T16:49:42;17.50;;;8.00;;
76786;SDS011;65739;51.482;5.702;2024-01-10T16:52:11;16.25;;;7.32;;
76786;SDS011;65739;51.482;5.702;2024-01-10T16:54:50;19.67;;;7.97;;
76786;SDS011;65739;51.482;5.702;2024-01-10T16:57:20;20.52;;;7.22;;
76786;SDS011;65739;51.482;5.702;2024-01-10T16:59:49;18.50;;;7.55;;
76786;SDS011;65739;51.482;5.702;2024-01-10T17:02:16;18.92;;;7.72;;
76786;SDS011;65739;51.482;5.702;2024-01-10T17:04:45;19.52;;;7.78;;
76786;SDS011;65739;51.482;5.702;2024-01-10T17:07:11;22.17;;;8.27;;
76786;SDS011;65739;51.482;5.702;2024-01-10T17:09:40;17.77;;;7.85;;
76786;SDS011;65739;51.482;5.702;2024-01-10T17:12:16;23.92;;;8.40;;
76786;SDS011;65739;51.482;5.702;2024-01-10T17:14:47;18.80;;;8.23;;
76786;SDS011;65739;51.482;5.702;2024-01-10T17:17:23;20.25;;;8.00;;
76786;SDS011;65739;51.482;5.702;2024-01-10T17:23:44;20.20;;;7.53;;
76786;SDS011;65739;51.482;5.702;2024-01-10T17:26:10;19.83;;;7.88;;
76786;SDS011;65739;51.482;5.702;2024-01-10T17:28:36;19.10;;;8.02;;
76786;SDS011;65739;51.482;5.702;2024-01-10T17:31:04;16.00;;;7.82;;
76786;SDS011;65739;51.482;5.702;2024-01-10T17:33:30;18.77;;;7.80;;
76786;SDS011;65739;51.482;5.702;2024-01-10T17:36:35;18.48;;;8.30;;
76786;SDS011;65739;51.482;5.702;2024-01-10T17:45:21;18.52;;;7.28;;
76786;SDS011;65739;51.482;5.702;2024-01-10T17:47:49;20.20;;;8.88;;
76786;SDS011;65739;51.482;5.702;2024-01-10T17:51:01;19.02;;;8.45;;
76786;SDS011;65739;51.482;5.702;2024-01-10T17:53:14;19.63;;;8.25;;
76786;SDS011;65739;51.482;5.702;2024-01-10T17:55:49;19.27;;;7.85;;
76786;SDS011;65739;51.482;5.702;2024-01-10T17:58:15;16.83;;;7.82;;
76786;SDS011;65739;51.482;5.702;2024-01-10T18:00:41;18.40;;;8.38;;
76786;SDS011;65739;51.482;5.702;2024-01-10T18:03:07;21.15;;;7.75;;
76786;SDS011;65739;51.482;5.702;2024-01-10T18:08:10;17.60;;;7.78;;
76786;SDS011;65739;51.482;5.702;2024-01-10T18:10:36;18.92;;;7.70;;
76786;SDS011;65739;51.482;5.702;2024-01-10T18:13:02;18.00;;;7.97;;
76786;SDS011;65739;51.482;5.702;2024-01-10T18:15:30;21.27;;;8.02;;
76786;SDS011;65739;51.482;5.702;2024-01-10T18:17:59;15.70;;;7.90;;
76786;SDS011;65739;51.482;5.702;2024-01-10T18:20:28;16.92;;;7.78;;
76786;SDS011;65739;51.482;5.702;2024-01-10T18:23:02;16.83;;;7.82;;
76786;SDS011;65739;51.482;5.702;2024-01-10T18:25:35;18.35;;;8.63;;
76786;SDS011;65739;51.482;5.702;2024-01-10T18:28:14;19.52;;;7.88;;
76786;SDS011;65739;51.482;5.702;2024-01-10T18:30:40;22.45;;;8.75;;
76786;SDS011;65739;51.482;5.702;2024-01-10T18:33:08;19.55;;;8.10;;
76786;SDS011;65739;51.482;5.702;2024-01-10T18:35:34;19.52;;;8.68;;
76786;SDS011;65739;51.482;5.702;2024-01-10T18:38:23;20.52;;;8.23;;
76786;SDS011;65739;51.482;5.702;2024-01-10T18:40:56;18.45;;;7.75;;
76786;SDS011;65739;51.482;5.702;2024-01-10T18:43:22;21.63;;;7.85;;
76786;SDS011;65739;51.482;5.702;2024-01-10T18:45:49;22.80;;;9.07;;
76786;SDS011;65739;51.482;5.702;2024-01-10T18:48:14;17.58;;;8.00;;
76786;SDS011;65739;51.482;5.702;2024-01-10T18:50:40;19.50;;;8.10;;
76786;SDS011;65739;51.482;5.702;2024-01-10T18:53:06;14.60;;;7.88;;
76786;SDS011;65739;51.482;5.702;2024-01-10T18:55:32;19.00;;;9.45;;
76786;SDS011;65739;51.482;5.702;2024-01-10T18:57:59;18.77;;;8.52;;
76786;SDS011;65739;51.482;5.702;2024-01-10T19:00:27;19.88;;;9.38;;
76786;SDS011;65739;51.482;5.702;2024-01-10T19:02:53;21.30;;;9.55;;
76786;SDS011;65739;51.482;5.702;2024-01-10T19:05:19;23.67;;;9.10;;
76786;SDS011;65739;51.482;5.702;2024-01-10T19:07:46;18.67;;;8.70;;
76786;SDS011;65739;51.482;5.702;2024-01-10T19:10:12;20.50;;;8.35;;
76786;SDS011;65739;51.482;5.702;2024-01-10T19:12:38;26.30;;;9.00;;
76786;SDS011;65739;51.482;5.702;2024-01-10T19:15:06;20.60;;;8.30;;
76786;SDS011;65739;51.482;5.702;2024-01-10T19:17:33;17.92;;;8.15;;
76786;SDS011;65739;51.482;5.702;2024-01-10T19:19:59;17.80;;;9.02;;
76786;SDS011;65739;51.482;5.702;2024-01-10T19:22:25;21.45;;;9.00;;
76786;SDS011;65739;51.482;5.702;2024-01-10T19:24:51;24.95;;;8.18;;
76786;SDS011;65739;51.482;5.702;2024-01-10T19:27:17;21.30;;;8.77;;
76786;SDS011;65739;51.482;5.702;2024-01-10T19:29:43;21.08;;;8.27;;
76786;SDS011;65739;51.482;5.702;2024-01-10T19:32:10;22.63;;;8.52;;
76786;SDS011;65739;51.482;5.702;2024-01-10T19:34:36;19.45;;;8.35;;
76786;SDS011;65739;51.482;5.702;2024-01-10T19:37:07;20.52;;;9.00;;
76786;SDS011;65739;51.482;5.702;2024-01-10T19:39:49;19.48;;;8.88;;
76786;SDS011;65739;51.482;5.702;2024-01-10T19:42:15;17.50;;;8.38;;
76786;SDS011;65739;51.482;5.702;2024-01-10T19:44:43;20.65;;;8.35;;
76786;SDS011;65739;51.482;5.702;2024-01-10T19:47:11;20.55;;;8.98;;
76786;SDS011;65739;51.482;5.702;2024-01-10T19:49:39;15.63;;;8.77;;
76786;SDS011;65739;51.482;5.702;2024-01-10T19:52:05;22.75;;;9.48;;
76786;SDS011;65739;51.482;5.702;2024-01-10T19:54:30;16.92;;;8.32;;
76786;SDS011;65739;51.482;5.702;2024-01-10T19:56:56;20.67;;;8.65;;
76786;SDS011;65739;51.482;5.702;2024-01-10T19:59:24;23.63;;;8.90;;
76786;SDS011;65739;51.482;5.702;2024-01-10T20:01:50;16.17;;;7.57;;
76786;SDS011;65739;51.482;5.702;2024-01-10T20:04:16;23.77;;;9.43;;
76786;SDS011;65739;51.482;5.702;2024-01-10T20:06:42;20.90;;;8.90;;
76786;SDS011;65739;51.482;5.702;2024-01-10T20:09:07;21.42;;;9.10;;
76786;SDS011;65739;51.482;5.702;2024-01-10T20:11:41;22.20;;;8.60;;
76786;SDS011;65739;51.482;5.702;2024-01-10T20:14:14;25.25;;;9.27;;
76786;SDS011;65739;51.482;5.702;2024-01-10T20:16:40;20.52;;;9.60;;
76786;SDS011;65739;51.482;5.702;2024-01-10T20:26:09;23.40;;;9.18;;
76786;SDS011;65739;51.482;5.702;2024-01-10T20:28:37;20.33;;;8.80;;
76786;SDS011;65739;51.482;5.702;2024-01-10T20:31:06;20.63;;;9.38;;
76786;SDS011;65739;51.482;5.702;2024-01-10T20:43:50;23.55;;;9.55;;
76786;SDS011;65739;51.482;5.702;2024-01-10T21:06:56;23.08;;;9.93;;
76786;SDS011;65739;51.482;5.702;2024-01-10T21:09:51;25.67;;;9.90;;
76786;SDS011;65739;51.482;5.702;2024-01-10T21:12:19;23.10;;;10.30;;
76786;SDS011;65739;51.482;5.702;2024-01-10T21:15:01;21.02;;;9.55;;
76786;SDS011;65739;51.482;5.702;2024-01-10T21:17:26;22.13;;;9.23;;
76786;SDS011;65739;51.482;5.702;2024-01-10T21:19:52;23.80;;;9.52;;
76786;SDS011;65739;51.482;5.702;2024-01-10T21:22:20;23.10;;;9.70;;
76786;SDS011;65739;51.482;5.702;2024-01-10T21:24:49;19.40;;;9.30;;
76786;SDS011;65739;51.482;5.702;2024-01-10T21:27:15;26.33;;;10.20;;
76786;SDS011;65739;51.482;5.702;2024-01-10T21:29:41;24.55;;;10.77;;
76786;SDS011;65739;51.482;5.702;2024-01-10T21:32:07;22.98;;;9.85;;
76786;SDS011;65739;51.482;5.702;2024-01-10T21:34:35;24.02;;;9.63;;
76786;SDS011;65739;51.482;5.702;2024-01-10T21:37:01;25.13;;;10.60;;
76786;SDS011;65739;51.482;5.702;2024-01-10T21:39:28;21.35;;;10.23;;
76786;SDS011;65739;51.482;5.702;2024-01-10T21:41:54;24.85;;;10.18;;
76786;SDS011;65739;51.482;5.702;2024-01-10T21:44:34;23.55;;;10.48;;
76786;SDS011;65739;51.482;5.702;2024-01-10T21:47:11;24.80;;;10.35;;
76786;SDS011;65739;51.482;5.702;2024-01-10T21:49:43;23.63;;;10.65;;
76786;SDS011;65739;51.482;5.702;2024-01-10T21:52:12;25.38;;;10.50;;
76786;SDS011;65739;51.482;5.702;2024-01-10T21:54:47;27.20;;;11.05;;
76786;SDS011;65739;51.482;5.702;2024-01-10T21:57:13;28.92;;;12.02;;
76786;SDS011;65739;51.482;5.702;2024-01-10T21:59:45;27.42;;;10.85;;
76786;SDS011;65739;51.482;5.702;2024-01-10T22:02:15;26.13;;;10.85;;
76786;SDS011;65739;51.482;5.702;2024-01-10T22:04:50;27.52;;;11.48;;
76786;SDS011;65739;51.482;5.702;2024-01-10T22:07:53;23.17;;;10.23;;
76786;SDS011;65739;51.482;5.702;2024-01-10T22:17:36;21.55;;;9.98;;
76786;SDS011;65739;51.482;5.702;2024-01-10T22:20:03;26.75;;;11.70;;
76786;SDS011;65739;51.482;5.702;2024-01-10T22:22:32;26.48;;;10.98;;
76786;SDS011;65739;51.482;5.702;2024-01-10T22:25:13;24.60;;;11.38;;
76786;SDS011;65739;51.482;5.702;2024-01-10T22:27:46;24.70;;;11.02;;
76786;SDS011;65739;51.482;5.702;2024-01-10T22:30:42;30.70;;;12.32;;
76786;SDS011;65739;51.482;5.702;2024-01-10T22:33:13;31.00;;;11.27;;
76786;SDS011;65739;51.482;5.702;2024-01-10T22:35:41;26.45;;;11.20;;
76786;SDS011;65739;51.482;5.702;2024-01-10T22:38:14;29.15;;;11.30;;
76786;SDS011;65739;51.482;5.702;2024-01-10T22:40:45;26.15;;;10.85;;
76786;SDS011;65739;51.482;5.702;2024-01-10T22:43:13;24.35;;;11.88;;
76786;SDS011;65739;51.482;5.702;2024-01-10T22:45:44;29.73;;;12.02;;
76786;SDS011;65739;51.482;5.702;2024-01-10T22:48:20;27.65;;;12.50;;
76786;SDS011;65739;51.482;5.702;2024-01-10T22:50:48;29.92;;;11.55;;
76786;SDS011;65739;51.482;5.702;2024-01-10T22:53:59;27.92;;;11.77;;
76786;SDS011;65739;51.482;5.702;2024-01-10T23:06:26;26.88;;;12.35;;
76786;SDS011;65739;51.482;5.702;2024-01-10T23:09:04;30.20;;;11.27;;
76786;SDS011;65739;51.482;5.702;2024-01-10T23:11:29;28.90;;;12.88;;
76786;SDS011;65739;51.482;5.702;2024-01-10T23:13:55;27.75;;;11.73;;
76786;SDS011;65739;51.482;5.702;2024-01-10T23:16:21;27.85;;;12.18;;
76786;SDS011;65739;51.482;5.702;2024-01-10T23:18:47;27.85;;;11.73;;
76786;SDS011;65739;51.482;5.702;2024-01-10T23:21:13;28.35;;;11.38;;
76786;SDS011;65739;51.482;5.702;2024-01-10T23:23:43;31.08;;;12.05;;
76786;SDS011;65739;51.482;5.702;2024-01-10T23:26:09;28.10;;;12.70;;
76786;SDS011;65739;51.482;5.702;2024-01-10T23:28:37;28.58;;;12.35;;
76786;SDS011;65739;51.482;5.702;2024-01-10T23:31:03;32.20;;;13.05;;
76786;SDS011;65739;51.482;5.702;2024-01-10T23:33:29;28.70;;;12.77;;
76786;SDS011;65739;51.482;5.702;2024-01-10T23:35:57;26.27;;;12.23;;
76786;SDS011;65739;51.482;5.702;2024-01-10T23:38:23;27.58;;;11.27;;
76786;SDS011;65739;51.482;5.702;2024-01-10T23:40:49;25.73;;;11.80;;
76786;SDS011;65739;51.482;5.702;2024-01-10T23:43:17;26.63;;;12.32;;
76786;SDS011;65739;51.482;5.702;2024-01-10T23:45:43;28.52;;;12.18;;
76786;SDS011;65739;51.482;5.702;2024-01-10T23:48:08;33.10;;;12.82;;
76786;SDS011;65739;51.482;5.702;2024-01-10T23:50:36;29.63;;;12.68;;
76786;SDS011;65739;51.482;5.702;2024-01-10T23:53:02;28.23;;;12.07;;
76786;SDS011;65739;51.482;5.702;2024-01-10T23:55:27;30.08;;;13.00;;
76786;SDS011;65739;51.482;5.702;2024-01-10T23:57:53;32.17;;;12.50;;
